createdAt,value
2023-03-26T00:01:16.109Z,95.26
2023-03-26T00:03:47.270Z,94.66
2023-03-26T00:06:16.811Z,94.40
2023-03-26T00:08:45.931Z,94.06
2023-03-26T00:11:14.843Z,94.50
2023-03-26T00:13:44.081Z,94.58
2023-03-26T00:16:19.809Z,94.64
2023-03-26T00:18:47.485Z,94.09
2023-03-26T00:21:15.870Z,93.44
2023-03-26T00:23:43.301Z,94.20
2023-03-26T00:26:11.366Z,94.33
2023-03-26T00:28:40.694Z,93.49
2023-03-26T00:31:10.895Z,93.54
2023-03-26T00:33:40.720Z,93.80
2023-03-26T00:36:14.886Z,93.85
2023-03-26T00:38:43.201Z,92.88
2023-03-26T00:41:23.167Z,93.24
2023-03-26T00:43:53.586Z,93.84
2023-03-26T00:46:20.452Z,93.26
2023-03-26T00:48:47.636Z,93.35
2023-03-26T00:51:16.493Z,93.37
2023-03-26T00:53:45.465Z,93.88
2023-03-26T00:56:12.949Z,93.98
2023-03-26T00:58:41.214Z,94.64
2023-03-26T01:01:18.744Z,93.94
2023-03-26T01:04:00.823Z,94.60
2023-03-26T01:06:36.207Z,94.36
2023-03-26T01:09:19.148Z,94.46
2023-03-26T01:11:46.471Z,93.93
2023-03-26T01:14:18.493Z,93.13
2023-03-26T01:16:52.574Z,92.15
2023-03-26T01:19:30.185Z,93.06
2023-03-26T01:21:58.508Z,91.83
2023-03-26T01:24:25.400Z,91.75
2023-03-26T01:27:01.122Z,92.51
2023-03-26T01:29:39.611Z,92.75
2023-03-26T01:32:12.355Z,93.27
2023-03-26T01:35:08.056Z,94.83
2023-03-26T01:37:43.756Z,95.08
2023-03-26T01:40:38.827Z,96.29
2023-03-26T01:43:16.484Z,96.46
2023-03-26T01:45:46.630Z,96.16
2023-03-26T01:48:14.130Z,96.87
2023-03-26T01:50:41.451Z,96.87
2023-03-26T01:53:11.926Z,97.28
2023-03-26T01:56:02.265Z,97.67
2023-03-26T01:58:38.300Z,98.13
2023-03-26T02:01:24.785Z,98.21
2023-03-26T02:04:15.873Z,97.87
2023-03-26T02:06:53.003Z,97.79
2023-03-26T02:09:25.076Z,97.64
2023-03-26T02:11:52.593Z,97.79
2023-03-26T02:14:19.429Z,97.23
2023-03-26T02:16:47.216Z,96.89
2023-03-26T02:19:22.120Z,97.28
2023-03-26T02:21:52.234Z,97.44
2023-03-26T02:24:20.195Z,97.97
2023-03-26T02:26:47.028Z,98.93
2023-03-26T02:29:14.694Z,98.52
2023-03-26T02:31:41.564Z,98.99
2023-03-26T02:34:08.337Z,98.41
2023-03-26T02:36:36.349Z,97.60
2023-03-26T02:39:03.653Z,97.60
2023-03-26T02:41:30.615Z,97.72
2023-03-26T02:43:57.376Z,97.62
2023-03-26T02:46:24.097Z,97.35
2023-03-26T02:48:51.401Z,97.10
2023-03-26T02:51:18.499Z,97.62
2023-03-26T02:53:46.204Z,98.02
2023-03-26T02:56:13.305Z,98.22
2023-03-26T02:58:40.056Z,97.80
2023-03-26T03:01:06.907Z,98.22
2023-03-26T03:03:34.738Z,98.51
2023-03-26T03:06:01.470Z,98.44
2023-03-26T03:08:28.641Z,98.62
2023-03-26T03:11:07.356Z,98.44
2023-03-26T03:13:34.265Z,98.16
2023-03-26T03:16:00.988Z,98.13
2023-03-26T03:18:28.012Z,98.53
2023-03-26T03:20:54.788Z,98.17
2023-03-26T03:23:21.570Z,97.60
2023-03-26T03:25:51.027Z,96.90
2023-03-26T03:28:18.490Z,96.37
2023-03-26T03:30:45.982Z,96.33
2023-03-26T03:33:13.364Z,97.30
2023-03-26T03:35:41.778Z,97.53
2023-03-26T03:38:08.530Z,97.59
2023-03-26T03:40:35.452Z,97.89
2023-03-26T03:43:02.195Z,97.12
2023-03-26T03:45:29.416Z,98.09
2023-03-26T03:47:56.465Z,97.71
2023-03-26T03:50:23.317Z,98.09
2023-03-26T03:52:50.838Z,98.29
2023-03-26T03:55:17.575Z,98.49
2023-03-26T03:57:44.791Z,98.34
2023-03-26T04:00:12.267Z,98.57
2023-03-26T04:02:43.280Z,98.32
2023-03-26T04:05:11.808Z,98.01
2023-03-26T04:07:39.365Z,98.26
2023-03-26T04:10:07.012Z,97.28
2023-03-26T04:12:33.781Z,97.72
2023-03-26T04:15:00.702Z,96.70
2023-03-26T04:17:27.649Z,97.46
2023-03-26T04:19:55.210Z,96.89
2023-03-26T04:22:22.509Z,96.00
2023-03-26T04:24:49.944Z,96.70
2023-03-26T04:27:20.455Z,96.91
2023-03-26T04:29:50.484Z,97.40
2023-03-26T04:32:34.550Z,97.48
2023-03-26T04:35:05.424Z,97.11
2023-03-26T04:37:39.784Z,97.34
2023-03-26T04:40:18.548Z,97.09
2023-03-26T04:42:48.265Z,97.79
2023-03-26T04:45:17.891Z,97.07
2023-03-26T04:47:46.731Z,97.71
2023-03-26T04:50:13.649Z,97.10
2023-03-26T04:52:42.519Z,96.94
2023-03-26T04:55:43.585Z,96.53
2023-03-26T04:58:10.386Z,96.05
2023-03-26T05:00:37.191Z,96.63
2023-03-26T05:03:04.048Z,96.15
2023-03-26T05:05:30.985Z,97.09
2023-03-26T05:07:57.947Z,96.65
2023-03-26T05:10:24.727Z,97.16
2023-03-26T05:12:51.545Z,96.32
2023-03-26T05:15:18.552Z,96.80
2023-03-26T05:17:45.330Z,97.13
2023-03-26T05:20:24.698Z,97.10
2023-03-26T05:22:51.618Z,96.70
2023-03-26T05:25:19.360Z,96.40
2023-03-26T05:27:46.965Z,96.20
2023-03-26T05:30:16.969Z,95.66
2023-03-26T05:32:43.879Z,96.20
2023-03-26T05:35:11.912Z,94.25
2023-03-26T05:37:39.127Z,95.18
2023-03-26T05:40:17.410Z,96.34
2023-03-26T05:42:44.984Z,95.63
2023-03-26T05:45:15.121Z,96.20
2023-03-26T05:47:41.917Z,96.08
2023-03-26T05:50:09.537Z,95.84
2023-03-26T05:52:36.222Z,95.85
2023-03-26T05:55:03.569Z,95.70
2023-03-26T05:57:31.615Z,95.55
2023-03-26T05:59:58.410Z,94.81
2023-03-26T06:02:25.263Z,95.11
2023-03-26T06:04:52.801Z,94.31
2023-03-26T06:07:19.963Z,93.71
2023-03-26T06:09:47.093Z,93.29
2023-03-26T06:12:14.979Z,93.06
2023-03-26T06:14:45.944Z,93.29
2023-03-26T06:17:13.489Z,93.51
2023-03-26T06:19:40.124Z,94.22
2023-03-26T06:22:06.859Z,93.57
2023-03-26T06:24:34.565Z,93.92
2023-03-26T06:27:01.315Z,93.84
2023-03-26T06:29:28.186Z,92.95
2023-03-26T06:31:55.162Z,94.06
2023-03-26T06:34:21.892Z,92.82
2023-03-26T06:36:49.021Z,93.20
2023-03-26T06:39:17.985Z,93.43
2023-03-26T06:41:44.710Z,93.28
2023-03-26T06:44:11.562Z,93.47
2023-03-26T06:46:38.425Z,92.26
2023-03-26T06:49:05.658Z,91.90
2023-03-26T06:51:32.454Z,93.37
2023-03-26T06:53:59.200Z,93.44
2023-03-26T06:56:25.988Z,92.26
2023-03-26T06:58:52.743Z,93.37
2023-03-26T07:01:19.542Z,92.20
2023-03-26T07:03:46.346Z,91.68
2023-03-26T07:06:13.209Z,89.78
2023-03-26T07:08:40.033Z,89.38
2023-03-26T07:11:07.054Z,89.60
2023-03-26T07:13:33.770Z,91.08
2023-03-26T07:16:00.745Z,89.57
2023-03-26T07:18:27.577Z,88.03
2023-03-26T07:20:54.923Z,89.71
2023-03-26T07:23:22.043Z,88.94
2023-03-26T07:25:49.856Z,87.52
2023-03-26T07:28:36.778Z,88.74
2023-03-26T07:31:17.360Z,88.10
2023-03-26T07:33:54.085Z,87.58
2023-03-26T07:36:33.303Z,86.82
2023-03-26T07:39:22.355Z,86.95
2023-03-26T07:42:09.248Z,85.79
2023-03-26T07:44:40.698Z,84.88
2023-03-26T07:47:26.193Z,82.73
2023-03-26T07:49:55.618Z,85.09
2023-03-26T07:52:26.722Z,84.89
2023-03-26T07:54:53.964Z,83.26
2023-03-26T07:57:39.157Z,80.31
2023-03-26T08:00:22.550Z,80.16
2023-03-26T08:03:01.797Z,78.89
2023-03-26T08:05:34.858Z,78.77
2023-03-26T08:08:10.754Z,79.60
2023-03-26T08:11:05.220Z,79.54
2023-03-26T08:13:39.342Z,81.03
2023-03-26T08:16:24.438Z,80.61
2023-03-26T08:18:55.304Z,81.94
2023-03-26T08:21:22.092Z,81.54
2023-03-26T08:24:02.182Z,81.22
2023-03-26T08:26:38.789Z,82.46
2023-03-26T08:29:18.939Z,80.74
2023-03-26T08:31:48.961Z,80.89
2023-03-26T08:34:15.993Z,82.39
2023-03-26T08:36:43.120Z,82.37
2023-03-26T08:39:10.030Z,83.38
2023-03-26T08:41:55.624Z,83.52
2023-03-26T08:45:01.270Z,85.38
2023-03-26T08:47:57.296Z,85.29
2023-03-26T08:50:48.875Z,84.67
2023-03-26T08:53:36.817Z,84.61
2023-03-26T08:56:24.392Z,84.02
2023-03-26T08:59:36.400Z,81.97
2023-03-26T09:02:36.590Z,82.19
2023-03-26T09:05:29.090Z,81.83
2023-03-26T09:08:33.421Z,83.20
2023-03-26T09:11:15.261Z,83.01
2023-03-26T09:14:06.483Z,82.47
2023-03-26T09:17:01.115Z,80.10
2023-03-26T09:20:05.430Z,78.46
2023-03-26T09:22:48.273Z,79.27
2023-03-26T09:25:48.586Z,78.91
2023-03-26T09:28:33.691Z,79.01
2023-03-26T09:31:28.479Z,77.62
2023-03-26T09:34:26.504Z,78.14
2023-03-26T09:37:15.957Z,77.58
2023-03-26T09:40:10.870Z,77.95
2023-03-26T09:42:47.657Z,76.50
2023-03-26T09:46:11.747Z,76.20
2023-03-26T09:49:00.058Z,73.94
2023-03-26T09:51:57.589Z,75.11
2023-03-26T09:54:29.860Z,74.50
2023-03-26T09:56:58.700Z,75.21
2023-03-26T09:59:42.623Z,74.28
2023-03-26T10:02:46.107Z,73.37
2023-03-26T10:05:20.706Z,74.55
2023-03-26T10:08:25.166Z,73.18
2023-03-26T10:11:13.839Z,74.67
2023-03-26T10:14:04.857Z,72.17
2023-03-26T10:16:37.056Z,70.88
2023-03-26T10:19:09.596Z,69.41
2023-03-26T10:22:17.913Z,70.92
2023-03-26T10:25:32.887Z,69.90
2023-03-26T10:28:21.135Z,70.34
2023-03-26T10:31:25.613Z,72.16
2023-03-26T10:34:06.189Z,67.99
2023-03-26T10:36:41.653Z,69.99
2023-03-26T10:39:39.310Z,69.80
2023-03-26T10:42:34.272Z,70.45
2023-03-26T10:45:31.537Z,68.18
2023-03-26T10:48:24.721Z,69.60
2023-03-26T10:51:13.094Z,67.92
2023-03-26T10:54:09.118Z,69.81
2023-03-26T10:56:47.890Z,70.20
2023-03-26T10:59:17.219Z,69.10
2023-03-26T11:02:21.147Z,68.48
2023-03-26T11:05:04.268Z,70.65
2023-03-26T11:07:43.206Z,69.92
2023-03-26T11:10:21.695Z,70.44
2023-03-26T11:13:19.014Z,68.35
2023-03-26T11:15:57.777Z,68.44
2023-03-26T11:18:32.707Z,69.55
2023-03-26T11:21:24.283Z,70.02
2023-03-26T11:24:06.501Z,71.06
2023-03-26T11:26:49.260Z,69.47
2023-03-26T11:29:31.576Z,69.50
2023-03-26T11:32:11.147Z,67.92
2023-03-26T11:34:47.216Z,70.66
2023-03-26T11:37:34.476Z,69.66
2023-03-26T11:40:06.620Z,68.23
2023-03-26T11:42:33.495Z,67.56
2023-03-26T11:45:05.338Z,68.94
2023-03-26T11:47:48.844Z,67.75
2023-03-26T11:50:30.094Z,67.51
2023-03-26T11:53:10.780Z,66.66
2023-03-26T11:55:42.101Z,65.53
2023-03-26T11:58:26.296Z,65.81
2023-03-26T12:00:54.969Z,65.82
2023-03-26T12:03:21.854Z,63.65
2023-03-26T12:05:58.181Z,63.56
2023-03-26T12:08:34.012Z,63.19
2023-03-26T12:11:06.641Z,62.30
2023-03-26T12:13:42.089Z,62.64
2023-03-26T12:16:16.073Z,62.50
2023-03-26T12:18:45.521Z,60.99
2023-03-26T12:21:18.342Z,62.30
2023-03-26T12:24:01.199Z,60.24
2023-03-26T12:26:37.497Z,60.78
2023-03-26T12:29:19.294Z,58.61
2023-03-26T12:31:54.526Z,59.51
2023-03-26T12:34:23.830Z,61.98
2023-03-26T12:36:56.637Z,61.57
2023-03-26T12:40:10.665Z,61.57
2023-03-26T12:44:51.502Z,60.40
2023-03-26T12:45:32.007Z,58.29
2023-03-26T12:48:04.045Z,60.75
2023-03-26T12:50:55.422Z,56.75
2023-03-26T12:54:04.562Z,59.48
2023-03-26T12:56:47.934Z,58.59
2023-03-26T12:59:23.998Z,60.69
2023-03-26T13:01:56.412Z,59.69
2023-03-26T13:04:34.408Z,60.55
2023-03-26T13:07:11.121Z,60.06
2023-03-26T13:10:11.996Z,61.86
2023-03-26T13:13:01.581Z,59.99
2023-03-26T13:15:52.632Z,60.93
2023-03-26T13:18:37.437Z,60.58
2023-03-26T13:21:12.812Z,59.78
2023-03-26T13:23:56.586Z,58.78
2023-03-26T13:26:57.648Z,57.51
2023-03-26T13:29:42.057Z,59.03
2023-03-26T13:32:21.016Z,57.31
2023-03-26T13:34:56.920Z,56.36
2023-03-26T13:37:35.178Z,56.14
2023-03-26T13:40:28.040Z,58.16
2023-03-26T13:43:13.508Z,58.86
2023-03-26T13:45:55.127Z,58.76
2023-03-26T13:48:27.287Z,60.42
2023-03-26T13:50:58.403Z,57.84
2023-03-26T13:53:32.605Z,56.93
2023-03-26T13:56:00.540Z,57.04
2023-03-26T13:58:34.786Z,57.97
2023-03-26T14:01:22.007Z,58.52
2023-03-26T14:04:16.177Z,57.53
2023-03-26T14:07:09.565Z,56.44
2023-03-26T14:09:46.652Z,56.51
2023-03-26T14:12:30.362Z,57.24
2023-03-26T14:15:04.372Z,59.03
2023-03-26T14:17:46.673Z,59.67
2023-03-26T14:20:35.101Z,57.21
2023-03-26T14:23:07.640Z,57.63
2023-03-26T14:25:43.535Z,58.90
2023-03-26T14:28:44.276Z,57.99
2023-03-26T14:31:44.833Z,58.30
2023-03-26T14:34:38.614Z,59.91
2023-03-26T14:37:39.369Z,58.74
2023-03-26T14:40:25.367Z,58.51
2023-03-26T14:43:10.314Z,58.67
2023-03-26T14:45:42.956Z,58.56
2023-03-26T14:48:30.849Z,59.93
2023-03-26T14:51:45.580Z,58.53
2023-03-26T14:54:17.362Z,59.17
2023-03-26T14:57:13.372Z,59.52
2023-03-26T14:59:51.488Z,58.60
2023-03-26T15:02:55.037Z,58.60
2023-03-26T15:05:43.070Z,56.67
2023-03-26T15:08:34.574Z,58.32
2023-03-26T15:11:21.159Z,58.43
2023-03-26T15:13:48.040Z,59.35
2023-03-26T15:16:51.555Z,61.29
2023-03-26T15:19:33.479Z,59.51
2023-03-26T15:22:20.624Z,61.59
2023-03-26T15:25:11.963Z,60.70
2023-03-26T15:28:13.620Z,60.24
2023-03-26T15:31:10.050Z,59.38
2023-03-26T15:33:54.989Z,60.34
2023-03-26T15:36:24.889Z,59.86
2023-03-26T15:39:11.827Z,60.17
2023-03-26T15:41:47.535Z,61.02
2023-03-26T15:44:54.129Z,59.99
2023-03-26T15:47:40.343Z,60.74
2023-03-26T15:50:27.236Z,60.91
2023-03-26T15:53:23.864Z,61.06
2023-03-26T15:56:09.097Z,60.63
2023-03-26T15:58:45.397Z,64.91
2023-03-26T16:01:27.258Z,62.86
2023-03-26T16:04:18.690Z,61.35
2023-03-26T16:06:48.344Z,60.93
2023-03-26T16:09:21.108Z,61.37
2023-03-26T16:12:12.594Z,61.30
2023-03-26T16:14:47.051Z,61.33
2023-03-26T16:17:20.799Z,62.50
2023-03-26T16:19:50.603Z,61.13
2023-03-26T16:22:43.132Z,62.48
2023-03-26T16:25:27.669Z,63.34
2023-03-26T16:28:10.917Z,62.80
2023-03-26T16:30:39.118Z,62.64
2023-03-26T16:33:36.122Z,63.24
2023-03-26T16:36:14.312Z,62.99
2023-03-26T16:39:07.553Z,63.88
2023-03-26T16:41:56.604Z,64.90
2023-03-26T16:44:39.152Z,64.90
2023-03-26T16:47:24.627Z,64.96
2023-03-26T16:50:09.571Z,65.40
2023-03-26T16:52:42.901Z,65.46
2023-03-26T16:55:27.002Z,66.32
2023-03-26T16:57:54.013Z,66.21
2023-03-26T17:00:29.995Z,66.21
2023-03-26T17:03:01.693Z,65.62
2023-03-26T17:05:56.753Z,66.15
2023-03-26T17:08:42.785Z,67.32
2023-03-26T17:11:27.689Z,66.85
2023-03-26T17:14:03.801Z,66.24
2023-03-26T17:16:46.079Z,65.93
2023-03-26T17:19:24.361Z,66.68
2023-03-26T17:22:21.649Z,65.64
2023-03-26T17:24:58.122Z,65.60
2023-03-26T17:27:36.602Z,66.79
2023-03-26T17:30:41.239Z,67.90
2023-03-26T17:33:27.028Z,67.51
2023-03-26T17:36:12.207Z,67.10
2023-03-26T17:38:45.211Z,66.53
2023-03-26T17:41:15.855Z,66.55
2023-03-26T17:43:52.449Z,67.19
2023-03-26T17:46:22.354Z,66.99
2023-03-26T17:49:17.191Z,67.24
2023-03-26T17:51:56.683Z,66.09
2023-03-26T17:54:27.975Z,66.74
2023-03-26T17:56:59.934Z,67.13
2023-03-26T17:59:28.592Z,67.10
2023-03-26T18:02:01.299Z,67.28
2023-03-26T18:04:35.235Z,66.74
2023-03-26T18:07:20.892Z,65.64
2023-03-26T18:09:56.824Z,66.59
2023-03-26T18:12:41.634Z,66.79
2023-03-26T18:15:38.073Z,66.75
2023-03-26T18:18:10.453Z,68.00
2023-03-26T18:20:38.113Z,66.94
2023-03-26T18:23:22.289Z,69.48
2023-03-26T18:26:14.240Z,69.54
2023-03-26T18:28:44.230Z,67.39
2023-03-26T18:31:18.889Z,66.60
2023-03-26T18:33:49.947Z,67.17
2023-03-26T18:36:19.858Z,67.13
2023-03-26T18:38:49.061Z,66.81
2023-03-26T18:41:27.613Z,66.57
2023-03-26T18:43:55.521Z,68.41
2023-03-26T18:46:24.306Z,67.51
2023-03-26T18:48:52.386Z,66.68
2023-03-26T18:51:23.377Z,67.72
2023-03-26T18:53:56.934Z,65.38
2023-03-26T18:56:39.870Z,66.83
2023-03-26T18:59:20.696Z,65.66
2023-03-26T19:01:48.985Z,64.85
2023-03-26T19:04:17.240Z,64.88
2023-03-26T19:06:45.018Z,66.16
2023-03-26T19:09:30.196Z,65.89
2023-03-26T19:12:05.584Z,63.60
2023-03-26T19:14:37.050Z,63.84
2023-03-26T19:17:06.023Z,63.60
2023-03-26T19:19:37.026Z,64.04
2023-03-26T19:22:08.858Z,64.42
2023-03-26T19:24:35.942Z,62.88
2023-03-26T19:27:03.719Z,63.33
2023-03-26T19:29:34.534Z,63.60
2023-03-26T19:32:06.491Z,63.35
2023-03-26T19:34:40.135Z,63.34
2023-03-26T19:37:25.434Z,63.78
2023-03-26T19:39:54.626Z,64.55
2023-03-26T19:42:44.178Z,63.47
2023-03-26T19:45:23.367Z,64.13
2023-03-26T19:48:03.660Z,63.06
2023-03-26T19:50:43.043Z,62.26
2023-03-26T19:53:19.647Z,62.81
2023-03-26T19:56:13.393Z,62.98
2023-03-26T19:58:41.791Z,63.16
2023-03-26T20:01:18.984Z,62.63
2023-03-26T20:03:48.645Z,64.54
2023-03-26T20:06:18.883Z,62.84
2023-03-26T20:08:46.858Z,62.53
2023-03-26T20:11:33.561Z,63.03
2023-03-26T20:14:01.330Z,64.14
2023-03-26T20:16:33.755Z,62.42
2023-03-26T20:19:04.762Z,61.26
2023-03-26T20:21:41.358Z,61.53
2023-03-26T20:24:13.240Z,61.37
2023-03-26T20:26:40.108Z,61.60
2023-03-26T20:29:06.882Z,61.53
2023-03-26T20:31:33.948Z,62.46
2023-03-26T20:34:00.839Z,62.82
2023-03-26T20:36:33.916Z,62.94
2023-03-26T20:39:06.177Z,63.04
2023-03-26T20:41:34.563Z,63.60
2023-03-26T20:44:05.092Z,63.91
2023-03-26T20:46:33.319Z,64.61
2023-03-26T20:49:00.302Z,64.58
2023-03-26T20:51:28.964Z,64.84
2023-03-26T20:53:56.599Z,65.61
2023-03-26T20:56:23.878Z,65.38
2023-03-26T20:59:03.659Z,65.93
2023-03-26T21:01:35.001Z,66.24
2023-03-26T21:04:04.445Z,67.22
2023-03-26T21:06:31.665Z,67.03
2023-03-26T21:08:58.815Z,67.82
2023-03-26T21:11:53.912Z,66.37
2023-03-26T21:14:44.361Z,66.00
2023-03-26T21:17:18.114Z,66.12
2023-03-26T21:19:45.640Z,66.58
2023-03-26T21:22:36.070Z,66.74
2023-03-26T21:25:08.493Z,64.51
2023-03-26T21:27:46.265Z,66.34
2023-03-26T21:30:16.710Z,66.08
2023-03-26T21:32:45.667Z,64.94
2023-03-26T21:35:13.848Z,65.10
2023-03-26T21:37:43.189Z,63.60
2023-03-26T21:40:15.173Z,63.92
2023-03-26T21:42:43.544Z,63.28
2023-03-26T21:45:11.161Z,63.79
2023-03-26T21:47:38.026Z,64.68
2023-03-26T21:50:06.873Z,63.97
2023-03-26T21:52:34.371Z,64.64
2023-03-26T21:55:03.777Z,64.76
2023-03-26T21:57:50.848Z,64.21
2023-03-26T22:00:19.334Z,64.76
2023-03-26T22:03:14.974Z,64.25
2023-03-26T22:05:51.082Z,63.66
2023-03-26T22:08:34.962Z,63.74
2023-03-26T22:11:01.715Z,64.50
2023-03-26T22:13:28.472Z,64.46
2023-03-26T22:15:56.963Z,63.66
2023-03-26T22:18:26.167Z,64.62
2023-03-26T22:20:53.392Z,63.85
2023-03-26T22:23:20.322Z,64.75
2023-03-26T22:25:47.086Z,64.32
2023-03-26T22:28:14.071Z,64.58
2023-03-26T22:30:41.690Z,65.05
2023-03-26T22:33:12.245Z,64.48
2023-03-26T22:35:42.203Z,65.59
2023-03-26T22:38:09.942Z,64.83
2023-03-26T22:40:36.777Z,65.54
2023-03-26T22:43:03.535Z,65.68
2023-03-26T22:45:30.351Z,66.29
2023-03-26T22:48:03.499Z,66.44
2023-03-26T22:50:31.800Z,66.91
2023-03-26T22:52:58.448Z,67.58
2023-03-26T22:55:28.750Z,68.85
2023-03-26T22:57:56.523Z,67.92
2023-03-26T23:00:23.423Z,67.95
2023-03-26T23:02:50.222Z,68.14
2023-03-26T23:05:19.666Z,68.21
2023-03-26T23:07:47.546Z,68.67
2023-03-26T23:10:14.415Z,68.95
2023-03-26T23:12:41.735Z,68.62
2023-03-26T23:15:09.963Z,68.78
2023-03-26T23:17:37.749Z,69.39
2023-03-26T23:20:15.453Z,69.09
2023-03-26T23:22:43.196Z,69.92
2023-03-26T23:25:10.432Z,69.13
2023-03-26T23:27:37.871Z,68.96
2023-03-26T23:30:05.943Z,69.10
2023-03-26T23:32:33.250Z,69.12
2023-03-26T23:35:00.150Z,69.52
2023-03-26T23:37:29.585Z,68.90
2023-03-26T23:39:56.299Z,69.88
2023-03-26T23:42:28.576Z,69.00
2023-03-26T23:44:56.973Z,69.01
2023-03-26T23:47:24.017Z,68.66
2023-03-26T23:49:51.043Z,69.26
2023-03-26T23:52:17.896Z,69.70
2023-03-26T23:54:45.270Z,69.34
2023-03-26T23:57:12.151Z,69.59
2023-03-26T23:59:41.712Z,70.16
